createdAt,value
2019-02-26T05:00:53.443Z,23.70
2019-02-26T05:01:54.989Z,19.50
2019-02-26T05:03:46.007Z,19.40
2019-02-26T05:04:45.875Z,20.30
2019-02-26T05:06:38.536Z,19.60
2019-02-26T05:07:41.326Z,20.10
2019-02-26T05:09:33.336Z,19.60
2019-02-26T05:10:32.313Z,19.10
2019-02-26T05:12:25.326Z,18.70
2019-02-26T05:13:25.221Z,19.30
2019-02-26T05:15:19.815Z,19.50
2019-02-26T05:16:16.077Z,19.20
2019-02-26T05:18:08.738Z,19.80
2019-02-26T05:19:10.420Z,18.40
2019-02-26T05:21:04.166Z,20.00
2019-02-26T05:22:01.665Z,19.00
2019-02-26T05:23:55.180Z,18.60
2019-02-26T05:24:53.712Z,20.10
2019-02-26T05:26:46.395Z,19.10
2019-02-26T05:27:48.776Z,18.90
2019-02-26T05:29:40.962Z,19.40
2019-02-26T05:30:40.405Z,18.60
2019-02-26T05:32:33.428Z,18.70
2019-02-26T05:33:32.856Z,19.40
2019-02-26T05:35:25.315Z,19.60
2019-02-26T05:36:23.905Z,18.60
2019-02-26T05:38:16.571Z,19.40
2019-02-26T05:39:20.280Z,19.20
2019-02-26T05:41:09.131Z,20.60
2019-02-26T05:42:09.018Z,20.10
2019-02-26T05:44:04.070Z,18.70
2019-02-26T05:45:03.838Z,19.70
2019-02-26T05:46:56.232Z,20.70
2019-02-26T05:47:58.539Z,18.00
2019-02-26T05:49:46.772Z,18.50
2019-02-26T05:50:46.633Z,18.30
2019-02-26T05:52:39.793Z,19.60
2019-02-26T05:53:39.671Z,19.40
2019-02-26T05:55:32.440Z,18.70
2019-02-26T05:56:33.940Z,19.70
2019-02-26T05:58:24.965Z,18.60
2019-02-26T05:59:24.846Z,18.60
2019-02-26T06:01:19.351Z,19.30
2019-02-26T06:02:19.663Z,18.80
2019-02-26T06:04:11.898Z,19.80
2019-02-26T06:05:11.662Z,19.70
2019-02-26T06:07:04.593Z,19.40
2019-02-26T06:08:02.478Z,19.50
2019-02-26T06:09:56.355Z,20.10
2019-02-26T06:10:55.026Z,19.70
2019-02-26T06:12:47.703Z,19.00
2019-02-26T06:13:47.586Z,19.60
2019-02-26T06:15:40.240Z,20.00
2019-02-26T06:16:40.121Z,19.50
2019-02-26T06:18:32.792Z,19.30
2019-02-26T06:19:35.444Z,19.70
2019-02-26T06:21:26.060Z,19.20
2019-02-26T06:22:27.194Z,19.10
2019-02-26T06:24:20.216Z,20.20
2019-02-26T06:25:23.618Z,20.00
2019-02-26T06:27:13.073Z,21.20
2019-02-26T06:28:12.594Z,19.40
2019-02-26T06:30:05.895Z,21.20
2019-02-26T06:31:02.857Z,20.10
2019-02-26T06:32:59.557Z,20.50
2019-02-26T06:33:55.410Z,21.10
2019-02-26T06:35:48.056Z,20.80
2019-02-26T06:36:48.944Z,20.70
2019-02-26T06:38:40.628Z,21.50
2019-02-26T06:39:40.493Z,21.30
2019-02-26T06:41:33.151Z,20.80
2019-02-26T06:42:35.152Z,22.10
2019-02-26T06:44:25.713Z,20.90
2019-02-26T06:45:25.576Z,22.20
2019-02-26T06:47:18.237Z,20.80
2019-02-26T06:48:20.813Z,21.90
2019-02-26T06:50:12.931Z,21.30
2019-02-26T06:51:10.660Z,21.70
2019-02-26T06:53:04.539Z,21.50
2019-02-26T06:54:03.212Z,21.90
2019-02-26T06:55:55.890Z,23.00
2019-02-26T06:56:55.751Z,22.00
2019-02-26T06:58:48.416Z,21.20
2019-02-26T06:59:48.300Z,20.90
2019-02-26T07:01:41.979Z,22.80
2019-02-26T07:02:45.376Z,21.20
2019-02-26T07:04:33.508Z,21.90
2019-02-26T07:05:33.395Z,20.80
2019-02-26T07:07:26.078Z,21.20
2019-02-26T07:08:28.063Z,22.60
2019-02-26T07:10:23.135Z,23.50
2019-02-26T07:11:18.482Z,20.90
2019-02-26T07:13:12.308Z,21.90
2019-02-26T07:14:11.031Z,20.60
2019-02-26T07:16:05.157Z,21.70
2019-02-26T07:17:03.573Z,21.50
2019-02-26T07:18:56.249Z,22.10
2019-02-26T07:19:57.800Z,21.40
2019-02-26T07:21:51.311Z,22.60
2019-02-26T07:22:49.658Z,21.70
2019-02-26T07:24:43.655Z,21.90
2019-02-26T07:25:43.791Z,21.10
2019-02-26T07:27:35.935Z,24.10
2019-02-26T07:28:33.783Z,22.70
2019-02-26T07:30:26.454Z,22.90
2019-02-26T07:31:27.034Z,22.30
2019-02-26T07:33:18.983Z,23.10
2019-02-26T07:34:20.615Z,22.00
2019-02-26T07:36:11.545Z,21.90
2019-02-26T07:37:13.370Z,23.30
2019-02-26T07:39:05.114Z,22.60
2019-02-26T07:40:05.791Z,23.10
2019-02-26T07:41:56.631Z,23.10
2019-02-26T07:42:56.510Z,22.20
2019-02-26T07:44:49.163Z,22.80
2019-02-26T07:45:51.269Z,23.70
2019-02-26T07:47:41.733Z,22.00
2019-02-26T07:48:41.606Z,23.50
2019-02-26T07:50:37.768Z,22.50
2019-02-26T07:51:36.256Z,23.10
2019-02-26T07:53:26.830Z,22.70
2019-02-26T07:54:28.680Z,22.70
2019-02-26T07:56:21.164Z,23.20
2019-02-26T07:57:20.735Z,21.80
2019-02-26T07:59:12.663Z,22.90
2019-02-26T08:00:11.777Z,22.50
2019-02-26T08:02:06.279Z,25.80
2019-02-26T08:03:04.650Z,24.70
2019-02-26T08:04:56.988Z,25.50
2019-02-26T08:05:56.874Z,26.80
2019-02-26T08:07:51.916Z,27.30
2019-02-26T08:08:49.423Z,26.90
2019-02-26T08:10:42.805Z,27.30
2019-02-26T08:11:43.787Z,26.50
2019-02-26T08:13:36.509Z,28.40
2019-02-26T08:14:34.521Z,28.00
2019-02-26T08:16:27.723Z,28.20
2019-02-26T08:17:27.071Z,29.40
2019-02-26T08:19:19.758Z,28.70
2019-02-26T08:20:19.623Z,29.40
2019-02-26T08:22:12.286Z,28.20
2019-02-26T08:23:12.180Z,28.30
2019-02-26T08:25:04.842Z,30.30
2019-02-26T08:26:04.714Z,28.40
2019-02-26T08:28:00.660Z,28.40
2019-02-26T08:28:57.266Z,30.30
2019-02-26T08:30:52.406Z,29.80
2019-02-26T08:31:51.967Z,27.00
2019-02-26T08:33:42.476Z,28.30
2019-02-26T08:34:42.363Z,27.10
2019-02-26T08:36:35.036Z,27.40
2019-02-26T08:37:34.907Z,28.10
2019-02-26T08:39:27.568Z,26.80
2019-02-26T08:40:27.450Z,27.10
2019-02-26T08:42:20.134Z,26.40
2019-02-26T08:43:20.009Z,27.00
2019-02-26T08:45:14.930Z,26.60
2019-02-26T08:46:14.165Z,28.70
2019-02-26T08:48:05.213Z,26.60
2019-02-26T08:49:08.449Z,25.70
2019-02-26T08:51:00.893Z,24.30
2019-02-26T08:51:57.658Z,24.10
2019-02-26T08:53:51.888Z,23.40
2019-02-26T08:54:50.308Z,22.60
2019-02-26T08:56:43.015Z,25.40
2019-02-26T08:57:42.867Z,25.20
2019-02-26T08:59:35.530Z,25.00
2019-02-26T09:00:35.421Z,24.30
2019-02-26T09:02:28.098Z,24.60
2019-02-26T09:03:27.962Z,24.40
2019-02-26T09:05:20.649Z,24.30
2019-02-26T09:06:20.512Z,22.90
2019-02-26T09:08:15.405Z,24.30
2019-02-26T09:09:13.064Z,22.90
2019-02-26T09:11:06.343Z,23.60
2019-02-26T09:12:05.624Z,23.90
2019-02-26T09:13:59.380Z,25.40
2019-02-26T09:14:58.167Z,24.50
2019-02-26T09:16:52.596Z,24.20
2019-02-26T09:17:50.725Z,23.50
2019-02-26T09:19:43.406Z,23.60
2019-02-26T09:20:43.272Z,23.40
2019-02-26T09:22:35.940Z,24.30
2019-02-26T09:23:35.828Z,22.80
2019-02-26T09:25:29.581Z,22.00
2019-02-26T09:26:28.377Z,23.10
2019-02-26T09:28:22.420Z,23.50
2019-02-26T09:29:22.259Z,23.50
2019-02-26T09:31:14.225Z,22.50
2019-02-26T09:32:14.425Z,21.60
2019-02-26T09:34:06.147Z,22.20
2019-02-26T09:35:06.035Z,21.30
2019-02-26T09:37:00.504Z,22.70
2019-02-26T09:38:00.892Z,21.00
2019-02-26T09:39:52.035Z,22.30
2019-02-26T09:40:52.353Z,21.20
2019-02-26T09:42:45.824Z,22.10
2019-02-26T09:43:45.790Z,21.70
2019-02-26T09:45:36.387Z,21.90
2019-02-26T09:46:37.206Z,20.20
2019-02-26T09:48:28.963Z,20.80
2019-02-26T09:49:30.870Z,20.80
2019-02-26T09:51:21.495Z,20.70
2019-02-26T09:52:25.241Z,20.20
2019-02-26T09:54:15.165Z,20.10
2019-02-26T09:55:13.937Z,18.70
2019-02-26T09:57:06.603Z,18.70
2019-02-26T09:58:06.490Z,19.20
2019-02-26T10:00:00.222Z,19.00
2019-02-26T10:00:59.051Z,19.80
2019-02-26T10:02:52.116Z,18.30
2019-02-26T10:03:53.626Z,17.60
2019-02-26T10:05:45.879Z,18.40
2019-02-26T10:06:45.059Z,18.50
2019-02-26T10:08:36.873Z,17.80
2019-02-26T10:09:37.498Z,18.30
2019-02-26T10:11:29.393Z,17.80
2019-02-26T10:12:29.870Z,17.30
2019-02-26T10:14:21.987Z,18.00
2019-02-26T10:15:21.834Z,17.70
2019-02-26T10:17:16.462Z,18.20
2019-02-26T10:18:14.386Z,17.30
2019-02-26T10:20:09.300Z,16.90
2019-02-26T10:21:09.140Z,17.70
2019-02-26T10:23:02.739Z,16.80
2019-02-26T10:24:01.790Z,17.30
2019-02-26T10:25:55.564Z,17.30
2019-02-26T10:26:52.088Z,16.90
2019-02-26T10:28:46.820Z,17.90
2019-02-26T10:29:45.740Z,17.20
2019-02-26T10:31:40.412Z,17.30
2019-02-26T10:32:37.187Z,17.10
2019-02-26T10:34:30.404Z,18.30
2019-02-26T10:35:33.184Z,18.70
2019-02-26T10:37:22.413Z,19.20
2019-02-26T10:38:24.075Z,17.80
2019-02-26T10:40:16.959Z,19.10
2019-02-26T10:41:14.860Z,18.60
2019-02-26T10:43:07.531Z,18.40
2019-02-26T10:44:07.419Z,18.70
2019-02-26T10:46:00.108Z,19.10
2019-02-26T10:47:01.240Z,18.80
2019-02-26T10:48:52.929Z,18.80
2019-02-26T10:49:53.800Z,18.20
2019-02-26T10:51:45.248Z,18.40
2019-02-26T10:52:45.120Z,18.30
2019-02-26T10:54:40.552Z,19.10
2019-02-26T10:55:39.369Z,19.50
2019-02-26T10:57:31.091Z,19.60
2019-02-26T10:58:30.246Z,18.60
2019-02-26T11:00:25.281Z,18.70
2019-02-26T11:01:25.447Z,19.00
2019-02-26T11:03:17.300Z,18.40
2019-02-26T11:04:15.370Z,18.70
2019-02-26T11:06:09.981Z,18.50
2019-02-26T11:07:11.000Z,18.40
2019-02-26T11:09:01.790Z,18.40
2019-02-26T11:10:00.495Z,19.10
2019-02-26T11:11:54.963Z,18.30
2019-02-26T11:12:54.430Z,19.00
2019-02-26T11:14:45.756Z,18.60
2019-02-26T11:15:45.628Z,18.10
2019-02-26T11:17:38.323Z,18.70
2019-02-26T11:18:39.814Z,18.60
2019-02-26T11:20:33.961Z,18.30
2019-02-26T11:21:30.751Z,17.80
2019-02-26T11:23:30.831Z,18.20
2019-02-26T11:24:25.667Z,18.70
2019-02-26T11:26:18.111Z,18.50
2019-02-26T11:27:17.242Z,19.40
2019-02-26T11:29:08.552Z,18.30
2019-02-26T11:30:08.435Z,18.40
2019-02-26T11:32:01.685Z,19.10
2019-02-26T11:33:04.781Z,18.90
2019-02-26T11:34:55.071Z,18.80
2019-02-26T11:35:53.582Z,18.10
2019-02-26T11:37:47.398Z,18.30
2019-02-26T11:38:47.075Z,19.60
2019-02-26T11:40:38.804Z,19.50
2019-02-26T11:41:38.673Z,19.30
2019-02-26T11:43:31.375Z,19.00
2019-02-26T11:44:31.241Z,19.50
2019-02-26T11:46:25.289Z,19.80
2019-02-26T11:47:23.821Z,19.30
2019-02-26T11:49:17.517Z,18.70
2019-02-26T11:50:16.363Z,19.50
2019-02-26T11:52:09.043Z,19.10
2019-02-26T11:53:09.943Z,19.30
2019-02-26T11:55:05.791Z,18.90
2019-02-26T11:56:02.122Z,18.40
2019-02-26T11:57:54.163Z,19.30
2019-02-26T11:58:54.062Z,18.50
2019-02-26T12:00:49.616Z,18.60
2019-02-26T12:01:46.626Z,19.10
2019-02-26T12:03:41.181Z,19.10
2019-02-26T12:04:39.197Z,18.40
2019-02-26T12:06:31.887Z,18.80
2019-02-26T12:07:32.311Z,18.60
2019-02-26T12:09:24.430Z,18.60
2019-02-26T12:10:26.266Z,19.00
2019-02-26T12:12:17.015Z,19.50
2019-02-26T12:13:17.688Z,19.50
2019-02-26T12:15:12.304Z,18.50
2019-02-26T12:16:09.446Z,18.60
2019-02-26T12:18:02.130Z,17.30
2019-02-26T12:19:04.071Z,17.70
2019-02-26T12:20:54.706Z,15.50
2019-02-26T12:21:57.279Z,15.90
2019-02-26T12:23:47.249Z,16.90
2019-02-26T12:24:47.822Z,16.90
2019-02-26T12:26:41.655Z,18.40
2019-02-26T12:27:41.316Z,18.10
2019-02-26T12:29:32.390Z,18.30
2019-02-26T12:30:32.892Z,18.20
2019-02-26T12:32:27.065Z,17.70
2019-02-26T12:33:24.842Z,18.00
2019-02-26T12:35:18.018Z,19.00
2019-02-26T12:36:17.414Z,17.70
2019-02-26T12:38:18.156Z,18.20
2019-02-26T12:39:09.980Z,19.30
2019-02-26T12:41:02.684Z,17.90
2019-02-26T12:42:02.549Z,18.10
2019-02-26T12:43:55.222Z,17.80
2019-02-26T12:44:57.604Z,17.60
2019-02-26T12:46:51.062Z,18.50
2019-02-26T12:47:52.136Z,17.20
2019-02-26T12:49:42.237Z,17.80
2019-02-26T12:50:41.267Z,17.30
2019-02-26T12:52:33.956Z,16.40
2019-02-26T12:53:35.742Z,17.00
2019-02-26T12:55:29.489Z,17.70
2019-02-26T12:56:28.108Z,17.90
2019-02-26T12:58:21.315Z,19.00
2019-02-26T12:59:19.001Z,18.70
2019-02-26T13:01:11.663Z,17.90
2019-02-26T13:02:13.996Z,18.40
2019-02-26T13:04:06.000Z,16.90
2019-02-26T13:05:06.574Z,15.90
2019-02-26T13:06:56.803Z,17.40
2019-02-26T13:07:56.684Z,17.20
2019-02-26T13:09:54.090Z,17.00
2019-02-26T13:10:51.515Z,16.70
2019-02-26T13:12:45.399Z,16.40
2019-02-26T13:13:41.820Z,16.60
2019-02-26T13:15:34.485Z,17.00
2019-02-26T13:16:34.382Z,17.50
2019-02-26T13:18:27.073Z,17.10
2019-02-26T13:19:32.796Z,17.20
2019-02-26T13:21:19.624Z,17.10
2019-02-26T13:22:20.280Z,17.70
2019-02-26T13:24:15.707Z,16.30
2019-02-26T13:25:17.015Z,16.70
2019-02-26T13:27:04.782Z,17.00
2019-02-26T13:28:04.670Z,17.00
2019-02-26T13:29:57.339Z,16.70
2019-02-26T13:31:01.321Z,17.10
2019-02-26T13:32:56.233Z,16.10
2019-02-26T13:33:49.888Z,15.10
2019-02-26T13:35:45.600Z,15.10
2019-02-26T13:36:43.673Z,15.50
2019-02-26T13:38:44.106Z,15.30
2019-02-26T13:39:38.339Z,16.40
2019-02-26T13:41:30.085Z,16.00
2019-02-26T13:42:27.498Z,16.30
2019-02-26T13:44:20.195Z,15.20
2019-02-26T13:45:20.076Z,16.20
2019-02-26T13:47:12.760Z,15.80
2019-02-26T13:48:12.635Z,16.20
2019-02-26T13:50:05.337Z,16.90
2019-02-26T13:51:05.210Z,16.00
2019-02-26T13:52:57.914Z,16.60
2019-02-26T13:53:57.786Z,16.00
2019-02-26T13:55:50.458Z,17.30
2019-02-26T13:56:50.355Z,17.10
2019-02-26T13:58:43.048Z,18.10
2019-02-26T13:59:42.926Z,18.50
2019-02-26T14:01:35.601Z,17.40
2019-02-26T14:02:35.490Z,16.20
2019-02-26T14:04:28.191Z,18.10
2019-02-26T14:05:28.058Z,17.60
2019-02-26T14:07:20.742Z,18.10
2019-02-26T14:08:20.638Z,17.90
2019-02-26T14:10:13.639Z,18.30
2019-02-26T14:11:13.224Z,17.20
2019-02-26T14:13:05.890Z,17.00
2019-02-26T14:14:05.801Z,17.60
2019-02-26T14:15:58.478Z,16.60
2019-02-26T14:16:58.365Z,18.30
2019-02-26T14:18:51.029Z,17.10
2019-02-26T14:19:50.931Z,16.90
2019-02-26T14:21:43.627Z,17.50
2019-02-26T14:22:43.505Z,17.30
2019-02-26T14:24:36.179Z,17.70
2019-02-26T14:25:36.078Z,16.50
2019-02-26T14:27:28.778Z,17.20
2019-02-26T14:28:28.655Z,17.40
2019-02-26T14:30:21.318Z,17.00
2019-02-26T14:31:21.207Z,16.60
2019-02-26T14:33:13.921Z,16.80
2019-02-26T14:34:13.781Z,17.30
2019-02-26T14:36:06.456Z,16.50
2019-02-26T14:37:06.352Z,17.20
2019-02-26T14:38:59.046Z,17.50
2019-02-26T14:39:58.920Z,17.20
2019-02-26T14:41:51.605Z,16.60
2019-02-26T14:42:51.501Z,16.90
2019-02-26T14:44:44.203Z,17.00
2019-02-26T14:45:44.081Z,16.80
2019-02-26T14:47:36.774Z,17.90
2019-02-26T14:48:36.651Z,17.50
2019-02-26T14:50:29.330Z,17.30
2019-02-26T14:51:29.216Z,17.40
2019-02-26T14:53:21.906Z,17.80
2019-02-26T14:54:21.784Z,17.80
2019-02-26T14:56:14.457Z,18.00
2019-02-26T14:57:14.354Z,17.60
2019-02-26T14:59:07.045Z,18.00
2019-02-26T15:00:06.919Z,18.10
2019-02-26T15:01:59.601Z,19.20
2019-02-26T15:02:59.491Z,17.40
2019-02-26T15:04:52.186Z,17.90
2019-02-26T15:05:52.066Z,17.10
2019-02-26T15:07:44.742Z,16.90
2019-02-26T15:08:44.629Z,17.00
2019-02-26T15:10:37.330Z,17.10
2019-02-26T15:11:37.197Z,17.60
2019-02-26T15:13:29.871Z,16.50
2019-02-26T15:14:29.769Z,17.20
2019-02-26T15:16:22.951Z,15.90
2019-02-26T15:17:22.827Z,16.30
2019-02-26T15:19:15.526Z,16.70
2019-02-26T15:20:15.398Z,16.80
2019-02-26T15:22:08.091Z,16.40
2019-02-26T15:23:07.978Z,16.70
2019-02-26T15:25:00.643Z,16.30
2019-02-26T15:26:00.543Z,15.90
2019-02-26T15:27:53.236Z,17.40
2019-02-26T15:28:53.108Z,15.90
2019-02-26T15:30:45.785Z,16.50
2019-02-26T15:31:45.679Z,17.10
2019-02-26T15:33:38.373Z,15.60
2019-02-26T15:34:38.248Z,16.10
2019-02-26T15:36:30.918Z,15.70
2019-02-26T15:37:30.814Z,17.00
2019-02-26T15:39:23.505Z,17.10
2019-02-26T15:40:23.382Z,16.20
2019-02-26T15:42:16.570Z,16.70
2019-02-26T15:43:16.450Z,16.20
2019-02-26T15:45:09.123Z,16.50
2019-02-26T15:46:09.019Z,17.10
2019-02-26T15:48:03.752Z,17.30
2019-02-26T15:49:01.579Z,16.10
2019-02-26T15:50:54.260Z,16.70
2019-02-26T15:51:54.571Z,16.90
2019-02-26T15:53:46.846Z,16.80
2019-02-26T15:54:46.722Z,16.40
2019-02-26T15:56:39.395Z,16.70
2019-02-26T15:57:39.280Z,16.80
2019-02-26T15:59:35.254Z,17.40
2019-02-26T16:00:31.857Z,17.00
2019-02-26T16:02:25.987Z,17.20
2019-02-26T16:03:24.413Z,18.50
2019-02-26T16:05:17.101Z,19.40
2019-02-26T16:06:17.060Z,20.20
2019-02-26T16:08:09.656Z,19.20
2019-02-26T16:09:09.546Z,18.90
2019-02-26T16:11:02.239Z,18.30
2019-02-26T16:12:02.111Z,18.90
2019-02-26T16:13:54.792Z,17.70
2019-02-26T16:14:54.675Z,18.10
2019-02-26T16:16:47.367Z,17.60
2019-02-26T16:17:47.248Z,18.20
2019-02-26T16:19:40.446Z,19.40
2019-02-26T16:20:40.322Z,20.00
2019-02-26T16:22:33.070Z,28.90
2019-02-26T16:23:32.887Z,28.70
2019-02-26T16:25:25.576Z,28.60
2019-02-26T16:26:25.450Z,26.40
2019-02-26T16:28:18.134Z,22.90
2019-02-26T16:29:18.010Z,22.70
2019-02-26T16:31:10.702Z,21.40
2019-02-26T16:32:10.574Z,22.40
2019-02-26T16:34:03.251Z,43.50
2019-02-26T16:35:03.145Z,46.20
2019-02-26T16:36:55.825Z,193.00
2019-02-26T16:37:55.706Z,125.10
2019-02-26T16:39:48.380Z,68.40
2019-02-26T16:40:48.266Z,65.70
2019-02-26T16:42:44.364Z,85.00
2019-02-26T16:43:40.839Z,103.90
2019-02-26T16:45:35.092Z,113.10
2019-02-26T16:46:33.397Z,106.10
2019-02-26T16:48:26.086Z,73.80
2019-02-26T16:49:27.872Z,58.20
2019-02-26T16:51:21.565Z,49.60
2019-02-26T16:52:18.520Z,50.00
2019-02-26T16:54:11.224Z,48.40
2019-02-26T16:55:13.476Z,43.10
2019-02-26T16:57:03.763Z,41.60
2019-02-26T16:58:03.660Z,41.80
2019-02-26T16:59:56.364Z,39.60
2019-02-26T17:00:56.225Z,38.30
2019-02-26T17:02:48.903Z,39.40
2019-02-26T17:03:48.791Z,37.70
2019-02-26T17:05:41.476Z,37.90
2019-02-26T17:06:41.345Z,37.80
2019-02-26T17:08:34.021Z,36.30
2019-02-26T17:09:33.904Z,39.10
2019-02-26T17:11:26.605Z,35.70
2019-02-26T17:12:26.935Z,34.20
2019-02-26T17:14:19.148Z,33.10
2019-02-26T17:15:19.023Z,31.30
2019-02-26T17:17:11.702Z,31.30
2019-02-26T17:18:11.594Z,30.30
2019-02-26T17:20:04.317Z,33.60
2019-02-26T17:21:04.188Z,33.10
2019-02-26T17:22:56.861Z,33.30
2019-02-26T17:23:56.748Z,32.20
2019-02-26T17:25:49.436Z,34.30
2019-02-26T17:26:49.312Z,32.60
2019-02-26T17:28:44.108Z,33.00
2019-02-26T17:29:41.881Z,32.10
2019-02-26T17:31:34.556Z,32.20
2019-02-26T17:32:35.675Z,31.60
2019-02-26T17:34:27.122Z,32.20
2019-02-26T17:35:29.509Z,29.90
2019-02-26T17:37:19.654Z,31.30
2019-02-26T17:38:19.547Z,32.30
2019-02-26T17:40:12.233Z,32.20
2019-02-26T17:41:12.730Z,32.70
2019-02-26T17:43:05.428Z,37.80
2019-02-26T17:44:04.667Z,37.80
2019-02-26T17:45:57.397Z,34.80
2019-02-26T17:46:57.252Z,35.00
2019-02-26T17:48:49.927Z,34.90
2019-02-26T17:49:49.816Z,33.30
2019-02-26T17:51:42.501Z,31.70
2019-02-26T17:52:42.369Z,31.50
2019-02-26T17:54:36.912Z,31.10
2019-02-26T17:55:34.932Z,31.70
2019-02-26T17:57:27.616Z,32.20
2019-02-26T17:58:27.541Z,30.70
2019-02-26T18:00:20.191Z,33.70
2019-02-26T18:01:20.058Z,32.40
2019-02-26T18:03:12.718Z,31.20
2019-02-26T18:04:12.610Z,31.60
2019-02-26T18:06:05.285Z,31.10
2019-02-26T18:07:05.165Z,31.20
2019-02-26T18:08:57.831Z,30.90
2019-02-26T18:09:57.723Z,30.80
2019-02-26T18:11:50.408Z,30.20
2019-02-26T18:12:50.285Z,29.60
2019-02-26T18:14:42.994Z,31.10
2019-02-26T18:15:42.856Z,31.50
2019-02-26T18:17:35.585Z,30.40
2019-02-26T18:18:35.461Z,31.10
2019-02-26T18:20:28.773Z,28.50
2019-02-26T18:21:28.034Z,29.00
2019-02-26T18:23:20.800Z,28.70
2019-02-26T18:24:20.671Z,28.40
2019-02-26T18:26:17.685Z,28.90
2019-02-26T18:27:13.236Z,29.60
2019-02-26T18:29:05.901Z,29.20
2019-02-26T18:30:05.788Z,29.70
2019-02-26T18:31:58.479Z,27.50
2019-02-26T18:32:59.024Z,28.10
2019-02-26T18:34:51.010Z,27.00
2019-02-26T18:35:50.901Z,28.80
2019-02-26T18:37:46.368Z,29.90
2019-02-26T18:38:43.455Z,28.40
2019-02-26T18:40:36.124Z,27.50
2019-02-26T18:41:36.007Z,28.10
2019-02-26T18:43:28.692Z,27.10
2019-02-26T18:44:28.569Z,27.00
2019-02-26T18:46:21.227Z,27.30
2019-02-26T18:47:21.122Z,27.40
2019-02-26T18:49:13.947Z,24.90
2019-02-26T18:50:13.805Z,25.70
2019-02-26T18:52:08.502Z,26.10
2019-02-26T18:53:06.357Z,25.00
2019-02-26T18:54:59.034Z,24.50
2019-02-26T18:55:58.909Z,24.60
2019-02-26T18:57:51.618Z,24.20
2019-02-26T18:58:51.914Z,25.00
2019-02-26T19:00:44.156Z,24.20
2019-02-26T19:01:44.037Z,25.00
2019-02-26T19:03:36.731Z,25.10
2019-02-26T19:04:36.589Z,25.10
2019-02-26T19:06:29.260Z,24.50
2019-02-26T19:07:33.027Z,24.60
2019-02-26T19:09:21.829Z,23.00
2019-02-26T19:10:21.699Z,24.60
2019-02-26T19:12:14.375Z,25.70
2019-02-26T19:13:14.258Z,25.00
2019-02-26T19:15:06.945Z,24.60
2019-02-26T19:16:06.828Z,24.00
2019-02-26T19:18:02.273Z,23.50
2019-02-26T19:18:59.368Z,24.80
2019-02-26T19:20:52.058Z,23.60
2019-02-26T19:21:54.192Z,22.90
2019-02-26T19:23:44.649Z,23.90
2019-02-26T19:24:44.540Z,23.20
2019-02-26T19:26:37.222Z,24.10
2019-02-26T19:27:37.114Z,23.90
2019-02-26T19:29:31.620Z,24.10
2019-02-26T19:30:29.646Z,22.40
2019-02-26T19:32:22.311Z,24.20
2019-02-26T19:33:22.523Z,23.50
2019-02-26T19:35:14.878Z,24.40
2019-02-26T19:36:14.761Z,23.90
2019-02-26T19:38:07.416Z,23.40
2019-02-26T19:39:07.310Z,25.30
2019-02-26T19:40:59.992Z,24.20
2019-02-26T19:41:59.863Z,23.20
2019-02-26T19:43:52.540Z,25.10
2019-02-26T19:44:52.433Z,24.00
2019-02-26T19:46:45.110Z,23.80
2019-02-26T19:47:45.010Z,24.50
2019-02-26T19:49:39.784Z,25.10
2019-02-26T19:50:37.555Z,25.50
2019-02-26T19:52:30.257Z,25.30
2019-02-26T19:53:30.104Z,24.90
2019-02-26T19:55:22.804Z,24.40
2019-02-26T19:56:23.569Z,25.50
2019-02-26T19:58:15.377Z,25.90
2019-02-26T19:59:15.227Z,24.80
2019-02-26T20:01:07.892Z,26.00
2019-02-26T20:02:07.774Z,25.30
2019-02-26T20:04:00.475Z,24.70
2019-02-26T20:05:00.332Z,25.60
2019-02-26T20:06:53.057Z,26.40
2019-02-26T20:07:53.254Z,24.80
2019-02-26T20:09:45.586Z,26.00
2019-02-26T20:10:48.038Z,25.70
2019-02-26T20:12:38.149Z,25.90
2019-02-26T20:13:42.023Z,26.20
2019-02-26T20:15:30.735Z,25.50
2019-02-26T20:16:30.694Z,25.10
2019-02-26T20:18:25.797Z,27.10
2019-02-26T20:19:23.381Z,26.80
2019-02-26T20:21:19.070Z,26.80
2019-02-26T20:22:17.768Z,26.60
2019-02-26T20:24:08.469Z,26.70
2019-02-26T20:25:08.320Z,26.20
2019-02-26T20:27:02.062Z,27.20
2019-02-26T20:28:05.271Z,28.20
2019-02-26T20:29:54.635Z,27.20
2019-02-26T20:30:54.481Z,27.80
2019-02-26T20:32:47.131Z,27.90
2019-02-26T20:33:47.090Z,27.70
2019-02-26T20:35:39.704Z,28.10
2019-02-26T20:36:39.577Z,27.50
2019-02-26T20:38:35.148Z,28.40
2019-02-26T20:39:32.156Z,27.60
2019-02-26T20:41:24.828Z,27.60
2019-02-26T20:42:26.773Z,27.80
2019-02-26T20:44:17.398Z,29.00
2019-02-26T20:45:18.088Z,26.80
2019-02-26T20:47:10.082Z,27.90
2019-02-26T20:48:09.826Z,27.30
2019-02-26T20:50:02.509Z,29.90
2019-02-26T20:51:02.371Z,31.30
2019-02-26T20:52:55.249Z,31.40
2019-02-26T20:53:55.127Z,29.20
2019-02-26T20:55:52.560Z,30.60
2019-02-26T20:56:47.668Z,30.80
2019-02-26T20:58:40.461Z,31.90
2019-02-26T20:59:40.450Z,31.50
2019-02-26T21:01:33.234Z,31.40
2019-02-26T21:02:32.791Z,30.90
2019-02-26T21:04:25.470Z,31.60
2019-02-26T21:05:25.363Z,32.20
2019-02-26T21:07:18.184Z,38.80
2019-02-26T21:08:18.011Z,38.80
2019-02-26T21:10:15.048Z,37.90
2019-02-26T21:11:10.647Z,38.20
2019-02-26T21:13:04.438Z,37.10
2019-02-26T21:14:07.447Z,35.70
2019-02-26T21:15:55.898Z,34.40
2019-02-26T21:16:55.814Z,35.50
2019-02-26T21:18:48.426Z,36.50
2019-02-26T21:19:48.308Z,34.80
2019-02-26T21:21:40.988Z,36.00
2019-02-26T21:22:40.863Z,36.50
2019-02-26T21:24:34.606Z,38.30
2019-02-26T21:25:33.416Z,37.10
2019-02-26T21:27:26.556Z,37.50
2019-02-26T21:28:25.974Z,37.20
2019-02-26T21:30:18.629Z,35.10
2019-02-26T21:31:19.086Z,35.80
2019-02-26T21:33:11.209Z,38.20
2019-02-26T21:34:11.071Z,37.50
2019-02-26T21:36:03.739Z,38.40
2019-02-26T21:37:03.619Z,37.30
2019-02-26T21:38:56.333Z,37.00
2019-02-26T21:39:56.190Z,36.00
2019-02-26T21:41:48.891Z,36.50
2019-02-26T21:42:48.742Z,36.10
2019-02-26T21:44:41.866Z,37.40
2019-02-26T21:45:41.333Z,38.30
2019-02-26T21:47:33.985Z,38.00
2019-02-26T21:48:36.554Z,38.60
2019-02-26T21:50:26.876Z,36.70
2019-02-26T21:51:26.398Z,35.50
2019-02-26T21:53:19.234Z,37.20
2019-02-26T21:54:19.296Z,35.80
2019-02-26T21:56:15.461Z,32.80
2019-02-26T21:57:11.925Z,33.30
2019-02-26T21:59:04.338Z,32.60
2019-02-26T22:00:05.399Z,31.40
2019-02-26T22:01:56.984Z,29.60
2019-02-26T22:02:56.782Z,29.90
2019-02-26T22:04:50.096Z,29.90
2019-02-26T22:05:49.323Z,29.50
2019-02-26T22:07:42.243Z,31.60
2019-02-26T22:08:41.945Z,29.50
2019-02-26T22:10:34.615Z,31.00
2019-02-26T22:11:34.490Z,30.60
2019-02-26T22:13:29.275Z,30.20
2019-02-26T22:14:27.087Z,30.10
2019-02-26T22:16:19.773Z,30.30
2019-02-26T22:17:19.628Z,29.60
2019-02-26T22:19:12.273Z,30.90
2019-02-26T22:20:23.498Z,31.40
2019-02-26T22:22:04.844Z,31.50
2019-02-26T22:23:04.709Z,31.10
2019-02-26T22:24:57.931Z,29.70
2019-02-26T22:25:57.263Z,31.60
2019-02-26T22:27:50.430Z,30.30
2019-02-26T22:28:50.314Z,29.80
2019-02-26T22:30:42.994Z,30.60
2019-02-26T22:31:42.865Z,30.50
2019-02-26T22:33:35.527Z,30.50
2019-02-26T22:34:35.410Z,30.70
2019-02-26T22:36:28.087Z,30.20
2019-02-26T22:37:27.965Z,29.90
2019-02-26T22:39:22.676Z,29.30
2019-02-26T22:40:20.505Z,30.20
2019-02-26T22:42:13.200Z,29.80
2019-02-26T22:43:13.755Z,29.10
2019-02-26T22:45:05.744Z,30.60
2019-02-26T22:46:05.627Z,31.30
2019-02-26T22:47:58.298Z,30.10
2019-02-26T22:48:58.187Z,30.30
2019-02-26T22:51:01.913Z,26.40
2019-02-26T22:52:01.798Z,29.30
2019-02-26T22:53:54.482Z,28.40
2019-02-26T22:54:54.422Z,27.50
2019-02-26T22:56:47.020Z,27.70
2019-02-26T22:57:46.905Z,29.10
2019-02-26T22:59:40.843Z,27.90
